createdAt,value
2018-10-17T00:02:27.592Z,11.30
2018-10-17T00:04:55.911Z,12.17
2018-10-17T00:07:24.247Z,12.77
2018-10-17T00:09:52.574Z,12.80
2018-10-17T00:12:20.854Z,12.50
2018-10-17T00:14:49.148Z,14.73
2018-10-17T00:17:17.511Z,13.40
2018-10-17T00:19:45.931Z,14.03
2018-10-17T00:22:14.264Z,13.27
2018-10-17T00:24:42.651Z,13.63
2018-10-17T00:27:11.134Z,15.87
2018-10-17T00:29:39.573Z,13.37
2018-10-17T00:32:08.147Z,12.37
2018-10-17T00:34:36.437Z,13.17
2018-10-17T00:37:05.131Z,13.30
2018-10-17T00:39:33.390Z,13.53
2018-10-17T00:42:01.795Z,13.47
2018-10-17T00:44:30.096Z,13.33
2018-10-17T00:46:58.433Z,14.47
2018-10-17T00:49:26.719Z,12.87
2018-10-17T00:51:55.066Z,17.03
2018-10-17T00:54:23.369Z,14.97
2018-10-17T00:56:51.691Z,13.73
2018-10-17T00:59:20.003Z,13.93
2018-10-17T01:01:48.323Z,13.83
2018-10-17T01:04:16.639Z,15.23
2018-10-17T01:06:45.014Z,14.57
2018-10-17T01:09:14.220Z,14.50
2018-10-17T01:11:42.798Z,14.97
2018-10-17T01:14:11.333Z,14.63
2018-10-17T01:16:39.670Z,15.10
2018-10-17T01:19:08.342Z,15.20
2018-10-17T01:21:37.172Z,14.53
2018-10-17T01:24:06.417Z,15.70
2018-10-17T01:26:34.937Z,14.90
2018-10-17T01:29:03.276Z,15.37
2018-10-17T01:31:31.726Z,14.37
2018-10-17T01:34:00.044Z,16.30
2018-10-17T01:36:28.559Z,16.83
2018-10-17T01:38:56.855Z,14.90
2018-10-17T01:41:25.173Z,14.90
2018-10-17T01:43:53.471Z,14.80
2018-10-17T01:46:21.875Z,17.10
2018-10-17T01:48:50.322Z,14.43
2018-10-17T01:51:18.712Z,14.60
2018-10-17T01:53:47.041Z,17.20
2018-10-17T01:56:15.496Z,16.77
2018-10-17T01:58:43.995Z,15.60
2018-10-17T02:01:12.419Z,15.60
2018-10-17T02:03:40.783Z,15.50
2018-10-17T02:06:09.363Z,15.87
2018-10-17T02:08:37.764Z,14.70
2018-10-17T02:11:06.325Z,16.87
2018-10-17T02:13:34.788Z,17.00
2018-10-17T02:16:03.099Z,16.30
2018-10-17T02:18:31.592Z,16.90
2018-10-17T02:20:59.904Z,16.63
2018-10-17T02:23:28.269Z,15.07
2018-10-17T02:25:56.565Z,14.90
2018-10-17T02:28:24.890Z,14.50
2018-10-17T02:30:53.212Z,14.20
2018-10-17T02:33:21.571Z,14.03
2018-10-17T02:35:49.940Z,14.83
2018-10-17T02:38:18.271Z,13.83
2018-10-17T02:40:46.555Z,13.47
2018-10-17T02:43:14.918Z,14.87
2018-10-17T02:45:43.249Z,14.63
2018-10-17T02:48:11.598Z,14.10
2018-10-17T02:50:39.989Z,14.23
2018-10-17T02:53:08.753Z,13.87
2018-10-17T02:55:36.996Z,14.73
2018-10-17T02:58:05.422Z,13.93
2018-10-17T03:00:33.751Z,13.63
2018-10-17T03:03:02.186Z,13.97
2018-10-17T03:05:30.594Z,14.27
2018-10-17T03:07:58.932Z,13.37
2018-10-17T03:10:27.361Z,13.67
2018-10-17T03:12:55.912Z,12.93
2018-10-17T03:15:24.161Z,13.00
2018-10-17T03:17:52.503Z,14.53
2018-10-17T03:20:20.861Z,12.90
2018-10-17T03:22:49.180Z,17.40
2018-10-17T03:25:17.630Z,13.17
2018-10-17T03:27:45.892Z,13.90
2018-10-17T03:30:14.247Z,12.90
2018-10-17T03:32:42.589Z,14.23
2018-10-17T03:35:11.035Z,13.57
2018-10-17T03:37:39.395Z,15.97
2018-10-17T03:40:07.732Z,14.27
2018-10-17T03:42:36.020Z,14.63
2018-10-17T03:45:04.644Z,14.60
2018-10-17T03:47:32.958Z,14.90
2018-10-17T03:50:01.432Z,14.67
2018-10-17T03:52:29.850Z,14.70
2018-10-17T03:54:58.714Z,14.07
2018-10-17T03:57:27.017Z,15.10
2018-10-17T03:59:55.438Z,13.87
2018-10-17T04:02:23.709Z,15.87
2018-10-17T04:04:52.032Z,13.03
2018-10-17T04:07:20.320Z,13.03
2018-10-17T04:09:48.612Z,14.07
2018-10-17T04:12:16.888Z,13.57
2018-10-17T04:14:45.322Z,14.40
2018-10-17T04:17:13.754Z,11.97
2018-10-17T04:19:41.999Z,13.73
2018-10-17T04:22:10.443Z,13.93
2018-10-17T04:24:38.922Z,12.63
2018-10-17T04:27:07.359Z,14.77
2018-10-17T04:29:35.779Z,13.13
2018-10-17T04:32:04.227Z,13.17
2018-10-17T04:34:32.558Z,14.07
2018-10-17T04:37:00.957Z,12.57
2018-10-17T04:39:29.330Z,16.93
2018-10-17T04:41:57.621Z,14.13
2018-10-17T04:44:26.778Z,13.23
2018-10-17T04:46:55.134Z,13.83
2018-10-17T04:49:23.421Z,13.83
2018-10-17T04:51:51.784Z,13.83
2018-10-17T04:54:20.244Z,16.07
2018-10-17T04:56:48.548Z,27.47
2018-10-17T04:59:16.957Z,22.00
2018-10-17T05:01:45.240Z,24.57
2018-10-17T05:04:13.591Z,34.07
2018-10-17T05:06:41.961Z,29.73
2018-10-17T05:09:10.860Z,33.93
2018-10-17T05:11:40.181Z,29.67
2018-10-17T05:14:08.521Z,24.00
2018-10-17T05:16:37.348Z,25.97
2018-10-17T05:19:05.923Z,22.07
2018-10-17T05:21:34.243Z,22.60
2018-10-17T05:24:02.649Z,21.03
2018-10-17T05:26:31.220Z,22.90
2018-10-17T05:28:59.523Z,20.23
2018-10-17T05:31:27.897Z,23.53
2018-10-17T05:33:56.159Z,24.90
2018-10-17T05:36:24.512Z,24.40
2018-10-17T05:38:52.812Z,25.57
2018-10-17T05:41:21.184Z,22.40
2018-10-17T05:43:49.616Z,26.10
2018-10-17T05:46:17.927Z,23.10
2018-10-17T05:48:46.441Z,22.37
2018-10-17T05:51:14.982Z,22.53
2018-10-17T05:53:43.363Z,20.63
2018-10-17T05:56:11.668Z,16.53
2018-10-17T05:58:40.051Z,16.20
2018-10-17T06:01:08.610Z,16.30
2018-10-17T06:03:36.811Z,24.37
2018-10-17T06:06:05.340Z,121.03
2018-10-17T06:08:33.631Z,73.87
2018-10-17T06:11:01.991Z,32.37
2018-10-17T06:13:30.264Z,26.23
2018-10-17T06:15:58.591Z,39.47
2018-10-17T06:18:26.916Z,42.97
2018-10-17T06:20:55.238Z,39.80
2018-10-17T06:23:23.523Z,37.33
2018-10-17T06:25:51.851Z,32.10
2018-10-17T06:28:20.254Z,31.23
2018-10-17T06:30:48.628Z,31.00
2018-10-17T06:33:16.835Z,30.47
2018-10-17T06:35:45.158Z,29.53
2018-10-17T06:38:13.452Z,22.53
2018-10-17T06:40:41.840Z,20.50
2018-10-17T06:43:10.252Z,17.53
2018-10-17T06:45:38.569Z,17.07
2018-10-17T06:48:07.216Z,15.63
2018-10-17T06:50:35.550Z,13.90
2018-10-17T06:53:03.957Z,13.97
2018-10-17T06:55:32.271Z,19.37
2018-10-17T06:58:00.624Z,19.10
2018-10-17T07:00:29.167Z,15.07
2018-10-17T07:02:57.497Z,21.50
2018-10-17T07:05:25.815Z,21.57
2018-10-17T07:07:54.156Z,17.57
2018-10-17T07:10:22.444Z,19.63
2018-10-17T07:12:50.784Z,23.20
2018-10-17T07:15:19.194Z,19.20
2018-10-17T07:17:47.487Z,19.37
2018-10-17T07:20:15.845Z,22.10
2018-10-17T07:22:44.142Z,18.57
2018-10-17T07:25:12.666Z,19.57
2018-10-17T07:27:41.178Z,18.27
2018-10-17T07:30:10.255Z,19.53
2018-10-17T07:32:40.134Z,19.80
2018-10-17T07:35:09.713Z,23.30
2018-10-17T07:37:38.071Z,18.27
2018-10-17T07:40:06.744Z,23.90
2018-10-17T07:42:35.279Z,20.23
2018-10-17T07:45:03.747Z,20.23
2018-10-17T07:47:32.261Z,17.87
2018-10-17T07:50:00.567Z,20.13
2018-10-17T07:52:31.109Z,18.87
2018-10-17T07:54:59.623Z,22.63
2018-10-17T07:57:28.865Z,29.87
2018-10-17T07:59:57.280Z,20.77
2018-10-17T08:02:25.658Z,19.77
2018-10-17T08:04:54.351Z,19.93
2018-10-17T08:07:22.733Z,17.10
2018-10-17T08:09:51.065Z,20.90
2018-10-17T08:12:19.491Z,17.60
2018-10-17T08:14:47.727Z,16.80
2018-10-17T08:17:16.096Z,17.33
2018-10-17T08:19:44.432Z,18.00
2018-10-17T08:22:12.815Z,18.37
2018-10-17T08:24:41.143Z,19.47
2018-10-17T08:27:09.599Z,17.87
2018-10-17T08:29:37.872Z,17.67
2018-10-17T08:32:07.197Z,20.83
2018-10-17T08:34:35.632Z,19.73
2018-10-17T08:37:04.356Z,19.23
2018-10-17T08:39:32.331Z,20.10
2018-10-17T08:42:00.718Z,19.27
2018-10-17T08:44:29.085Z,21.30
2018-10-17T08:46:57.424Z,19.60
2018-10-17T08:49:25.947Z,21.50
2018-10-17T08:51:54.296Z,20.63
2018-10-17T08:54:22.643Z,20.77
2018-10-17T08:56:50.957Z,19.17
2018-10-17T08:59:19.284Z,19.83
2018-10-17T09:01:47.690Z,17.30
2018-10-17T09:04:16.044Z,21.93
2018-10-17T09:06:44.453Z,20.83
2018-10-17T09:09:13.653Z,17.07
2018-10-17T09:11:42.464Z,18.47
2018-10-17T09:14:11.406Z,21.43
2018-10-17T09:16:40.077Z,19.23
2018-10-17T09:19:09.020Z,19.37
2018-10-17T09:21:37.562Z,20.87
2018-10-17T09:24:05.797Z,22.23
2018-10-17T09:26:34.426Z,18.57
2018-10-17T09:29:02.862Z,19.13
2018-10-17T09:31:31.146Z,21.80
2018-10-17T09:33:59.532Z,19.20
2018-10-17T09:36:27.917Z,19.50
2018-10-17T09:38:56.364Z,21.23
2018-10-17T09:41:24.690Z,18.13
2018-10-17T09:43:53.031Z,17.77
2018-10-17T09:46:21.395Z,22.67
2018-10-17T09:48:49.730Z,22.20
2018-10-17T09:51:18.012Z,18.53
2018-10-17T09:53:46.359Z,17.90
2018-10-17T09:56:14.733Z,20.57
2018-10-17T09:58:43.086Z,22.73
2018-10-17T10:01:16.068Z,19.20
2018-10-17T10:03:44.552Z,18.70
2018-10-17T10:06:12.922Z,20.37
2018-10-17T10:08:41.145Z,16.10
2018-10-17T10:11:09.447Z,20.23
2018-10-17T10:13:37.755Z,18.67
2018-10-17T10:16:06.140Z,19.20
2018-10-17T10:18:34.419Z,24.53
2018-10-17T10:21:02.736Z,16.70
2018-10-17T10:23:31.054Z,17.03
2018-10-17T10:25:59.382Z,22.37
2018-10-17T10:28:27.815Z,18.90
2018-10-17T10:30:56.123Z,15.70
2018-10-17T10:33:24.598Z,20.23
2018-10-17T10:35:52.988Z,15.83
2018-10-17T10:38:21.279Z,23.70
2018-10-17T10:40:49.661Z,19.03
2018-10-17T10:43:18.149Z,18.07
2018-10-17T10:45:46.486Z,24.90
2018-10-17T10:48:15.050Z,21.70
2018-10-17T10:50:43.386Z,26.23
2018-10-17T10:53:11.854Z,14.83
2018-10-17T10:55:40.135Z,16.67
2018-10-17T10:58:08.457Z,16.13
2018-10-17T11:00:37.176Z,22.87
2018-10-17T11:03:05.772Z,13.72
2018-10-17T11:05:34.291Z,18.45
2018-10-17T11:08:02.530Z,19.73
2018-10-17T11:10:30.848Z,16.20
2018-10-17T11:12:59.398Z,13.60
2018-10-17T11:15:27.889Z,13.20
2018-10-17T11:17:56.385Z,13.07
2018-10-17T11:20:24.998Z,16.23
2018-10-17T11:22:53.574Z,11.70
2018-10-17T11:25:21.879Z,10.90
2018-10-17T11:27:50.223Z,12.13
2018-10-17T11:30:18.632Z,9.75
2018-10-17T11:32:46.939Z,12.45
2018-10-17T11:35:15.373Z,14.95
2018-10-17T11:37:43.826Z,10.20
2018-10-17T11:40:12.275Z,10.23
2018-10-17T11:42:40.603Z,10.40
2018-10-17T11:45:09.005Z,9.63
2018-10-17T11:47:37.398Z,8.93
2018-10-17T11:50:07.546Z,9.88
2018-10-17T11:52:35.893Z,9.43
2018-10-17T11:55:04.827Z,14.38
2018-10-17T11:57:33.196Z,10.78
2018-10-17T12:00:01.561Z,10.70
2018-10-17T12:02:30.001Z,8.85
2018-10-17T12:04:58.502Z,9.83
2018-10-17T12:07:26.886Z,8.73
2018-10-17T12:09:55.231Z,8.70
2018-10-17T12:12:23.735Z,10.03
2018-10-17T12:14:52.028Z,8.03
2018-10-17T12:17:20.303Z,9.33
2018-10-17T12:19:50.536Z,8.33
2018-10-17T12:22:18.907Z,8.75
2018-10-17T12:24:47.263Z,9.10
2018-10-17T12:27:15.729Z,10.70
2018-10-17T12:29:43.944Z,8.78
2018-10-17T12:32:12.411Z,8.50
2018-10-17T12:34:40.741Z,9.05
2018-10-17T12:37:09.199Z,10.03
2018-10-17T12:39:37.563Z,11.78
2018-10-17T12:42:06.059Z,10.45
2018-10-17T12:44:34.391Z,8.13
2018-10-17T12:47:02.801Z,12.40
2018-10-17T12:49:31.297Z,8.85
2018-10-17T12:51:59.671Z,9.33
2018-10-17T12:54:28.029Z,8.20
2018-10-17T12:56:56.409Z,7.08
2018-10-17T12:59:24.826Z,9.65
2018-10-17T13:01:53.359Z,7.00
2018-10-17T13:04:21.756Z,8.70
2018-10-17T13:06:50.102Z,7.25
2018-10-17T13:09:18.457Z,10.82
2018-10-17T13:11:46.830Z,7.90
2018-10-17T13:14:15.187Z,10.95
2018-10-17T13:16:43.543Z,9.07
2018-10-17T13:19:11.878Z,8.50
2018-10-17T13:21:40.241Z,8.00
2018-10-17T13:24:08.620Z,10.13
2018-10-17T13:26:36.916Z,8.80
2018-10-17T13:29:06.129Z,7.95
2018-10-17T13:31:34.377Z,7.65
2018-10-17T13:34:02.713Z,12.05
2018-10-17T13:36:31.314Z,8.90
2018-10-17T13:38:59.659Z,7.47
2018-10-17T13:41:27.923Z,7.28
2018-10-17T13:43:56.288Z,8.30
2018-10-17T13:46:24.659Z,7.60
2018-10-17T13:48:53.074Z,7.07
2018-10-17T13:51:21.477Z,8.95
2018-10-17T13:53:49.793Z,6.80
2018-10-17T13:56:18.176Z,7.95
2018-10-17T13:58:46.496Z,8.25
2018-10-17T14:01:14.892Z,7.80
2018-10-17T14:03:43.198Z,6.78
2018-10-17T14:06:11.527Z,7.70
2018-10-17T14:08:39.926Z,6.97
2018-10-17T14:11:08.554Z,9.23
2018-10-17T14:13:36.966Z,7.85
2018-10-17T14:16:05.864Z,10.10
2018-10-17T14:18:34.266Z,10.57
2018-10-17T14:21:02.715Z,11.73
2018-10-17T14:23:31.130Z,9.77
2018-10-17T14:25:59.387Z,7.83
2018-10-17T14:28:27.711Z,7.90
2018-10-17T14:30:55.994Z,9.00
2018-10-17T14:33:25.092Z,8.27
2018-10-17T14:35:56.658Z,6.97
2018-10-17T14:38:25.070Z,6.37
2018-10-17T14:40:53.594Z,7.80
2018-10-17T14:43:21.844Z,11.23
2018-10-17T14:45:50.215Z,9.23
2018-10-17T14:48:18.696Z,7.03
2018-10-17T14:50:46.856Z,8.20
2018-10-17T14:53:15.487Z,10.00
2018-10-17T14:55:43.988Z,8.50
2018-10-17T14:58:12.348Z,7.10
2018-10-17T15:00:40.682Z,8.13
2018-10-17T15:03:09.033Z,8.73
2018-10-17T15:05:37.387Z,7.57
2018-10-17T15:08:05.753Z,7.70
2018-10-17T15:10:34.333Z,8.03
2018-10-17T15:13:02.528Z,7.53
2018-10-17T15:15:31.055Z,7.70
2018-10-17T15:17:59.572Z,7.93
2018-10-17T15:20:28.153Z,7.70
2018-10-17T15:22:56.521Z,7.47
2018-10-17T15:25:25.725Z,8.20
2018-10-17T15:27:55.719Z,9.17
2018-10-17T15:30:24.303Z,7.70
2018-10-17T15:32:52.687Z,12.63
2018-10-17T15:35:21.128Z,10.70
2018-10-17T15:37:49.515Z,7.90
2018-10-17T15:40:18.013Z,9.30
2018-10-17T15:42:46.437Z,9.50
2018-10-17T15:45:14.812Z,8.10
2018-10-17T15:47:43.083Z,8.07
2018-10-17T15:50:11.446Z,10.73
2018-10-17T15:52:39.836Z,8.30
2018-10-17T15:55:08.592Z,8.13
2018-10-17T15:57:36.964Z,8.53
2018-10-17T16:00:06.558Z,11.57
2018-10-17T16:02:35.071Z,15.50
2018-10-17T16:05:03.410Z,9.43
2018-10-17T16:07:31.754Z,12.77
2018-10-17T16:10:00.228Z,12.70
2018-10-17T16:12:28.629Z,13.20
2018-10-17T16:14:57.113Z,11.23
2018-10-17T16:17:25.578Z,13.33
2018-10-17T16:19:54.122Z,10.67
2018-10-17T16:22:22.695Z,14.13
2018-10-17T16:24:51.069Z,12.17
2018-10-17T16:27:19.416Z,17.30
2018-10-17T16:29:47.980Z,14.67
2018-10-17T16:32:16.434Z,16.50
2018-10-17T16:34:44.811Z,17.03
2018-10-17T16:37:13.129Z,15.77
2018-10-17T16:39:41.515Z,13.77
2018-10-17T16:42:09.939Z,12.70
2018-10-17T16:44:38.250Z,18.83
2018-10-17T16:47:06.599Z,13.47
2018-10-17T16:49:34.934Z,12.50
2018-10-17T16:52:03.283Z,20.57
2018-10-17T16:54:31.687Z,12.93
2018-10-17T16:57:00.158Z,14.13
2018-10-17T16:59:29.359Z,12.40
2018-10-17T17:01:58.509Z,12.80
2018-10-17T17:04:26.954Z,10.67
2018-10-17T17:06:55.460Z,9.90
2018-10-17T17:09:23.866Z,14.60
2018-10-17T17:11:52.312Z,10.20
2018-10-17T17:14:20.653Z,11.37
2018-10-17T17:16:49.023Z,17.80
2018-10-17T17:19:17.323Z,15.30
2018-10-17T17:21:45.695Z,9.97
2018-10-17T17:24:14.100Z,12.13
2018-10-17T17:26:42.559Z,14.27
2018-10-17T17:29:10.930Z,20.43
2018-10-17T17:31:39.281Z,9.00
2018-10-17T17:34:07.651Z,9.17
2018-10-17T17:36:36.076Z,13.70
2018-10-17T17:39:05.675Z,11.13
2018-10-17T17:41:34.108Z,13.23
2018-10-17T17:44:02.478Z,15.43
2018-10-17T17:46:30.890Z,11.67
2018-10-17T17:48:59.675Z,15.40
2018-10-17T17:51:28.156Z,16.03
2018-10-17T17:53:56.520Z,12.03
2018-10-17T17:56:24.934Z,10.80
2018-10-17T17:58:53.384Z,10.87
2018-10-17T18:01:21.890Z,9.73
2018-10-17T18:03:50.294Z,9.27
2018-10-17T18:06:18.936Z,10.80
2018-10-17T18:08:47.268Z,15.13
2018-10-17T18:11:22.656Z,12.07
2018-10-17T18:13:51.860Z,10.50
2018-10-17T18:16:20.256Z,12.03
2018-10-17T18:18:48.611Z,11.70
2018-10-17T18:21:16.961Z,13.60
2018-10-17T18:23:45.641Z,14.87
2018-10-17T18:26:14.345Z,15.97
2018-10-17T18:28:43.139Z,13.23
2018-10-17T18:31:11.799Z,14.07
2018-10-17T18:33:40.166Z,17.33
2018-10-17T18:36:08.523Z,16.33
2018-10-17T18:38:36.869Z,13.93
2018-10-17T18:41:05.456Z,13.07
2018-10-17T18:43:33.823Z,10.33
2018-10-17T18:46:02.200Z,11.60
2018-10-17T18:48:30.505Z,14.87
2018-10-17T18:50:59.021Z,10.40
2018-10-17T18:53:27.504Z,11.00
2018-10-17T18:55:56.006Z,13.07
2018-10-17T18:58:24.528Z,11.40
2018-10-17T19:00:52.876Z,11.90
2018-10-17T19:03:21.271Z,10.67
2018-10-17T19:05:49.604Z,11.93
2018-10-17T19:08:18.186Z,10.10
2018-10-17T19:10:46.492Z,10.27
2018-10-17T19:13:14.842Z,11.27
2018-10-17T19:15:43.272Z,10.63
2018-10-17T19:18:11.677Z,13.80
2018-10-17T19:20:40.115Z,11.60
2018-10-17T19:23:08.460Z,9.97
2018-10-17T19:25:36.856Z,12.67
2018-10-17T19:28:05.257Z,10.57
2018-10-17T19:30:33.577Z,10.73
2018-10-17T19:33:02.022Z,11.30
2018-10-17T19:35:30.605Z,11.60
2018-10-17T19:37:59.226Z,10.17
2018-10-17T19:40:28.005Z,10.83
2018-10-17T19:43:03.020Z,12.03
2018-10-17T19:45:31.426Z,10.70
2018-10-17T19:47:59.945Z,12.43
2018-10-17T19:50:28.311Z,10.20
2018-10-17T19:52:56.854Z,10.73
2018-10-17T19:55:25.211Z,10.37
2018-10-17T19:57:53.703Z,12.77
2018-10-17T20:00:22.152Z,17.87
2018-10-17T20:02:50.617Z,12.17
2018-10-17T20:05:18.928Z,13.03
2018-10-17T20:07:47.281Z,11.23
2018-10-17T20:10:15.653Z,12.47
2018-10-17T20:12:43.997Z,19.90
2018-10-17T20:15:12.433Z,15.23
2018-10-17T20:17:40.704Z,11.97
2018-10-17T20:20:09.132Z,15.20
2018-10-17T20:22:37.512Z,12.20
2018-10-17T20:25:06.341Z,11.00
2018-10-17T20:27:34.761Z,10.50
2018-10-17T20:30:03.106Z,10.90
2018-10-17T20:32:31.525Z,12.83
2018-10-17T20:35:00.074Z,11.83
2018-10-17T20:37:28.333Z,11.40
2018-10-17T20:39:56.804Z,15.60
2018-10-17T20:42:26.065Z,14.70
2018-10-17T20:44:54.427Z,10.57
2018-10-17T20:47:22.826Z,16.60
2018-10-17T20:49:51.216Z,12.00
2018-10-17T20:52:19.531Z,13.17
2018-10-17T20:54:47.918Z,13.70
2018-10-17T20:57:16.307Z,15.40
2018-10-17T20:59:44.723Z,11.03
2018-10-17T21:02:13.380Z,14.53
2018-10-17T21:04:42.118Z,10.83
2018-10-17T21:07:11.331Z,12.90
2018-10-17T21:09:40.602Z,11.73
2018-10-17T21:12:10.277Z,14.50
2018-10-17T21:14:41.231Z,11.60
2018-10-17T21:17:10.484Z,12.50
2018-10-17T21:19:40.992Z,13.20
2018-10-17T21:22:09.769Z,16.87
2018-10-17T21:24:38.330Z,11.23
2018-10-17T21:27:06.700Z,13.97
2018-10-17T21:29:35.041Z,12.57
2018-10-17T21:32:03.514Z,11.83
2018-10-17T21:34:31.978Z,12.57
2018-10-17T21:37:00.536Z,11.83
2018-10-17T21:39:28.921Z,11.50
2018-10-17T21:41:57.284Z,15.30
2018-10-17T21:44:25.677Z,11.20
2018-10-17T21:46:54.187Z,11.63
2018-10-17T21:49:22.543Z,9.83
2018-10-17T21:51:50.971Z,11.03
2018-10-17T21:54:19.363Z,11.20
2018-10-17T21:56:47.859Z,11.80
2018-10-17T21:59:16.239Z,11.43
2018-10-17T22:01:44.619Z,11.07
2018-10-17T22:04:12.950Z,12.10
2018-10-17T22:06:41.288Z,11.37
2018-10-17T22:09:10.760Z,11.80
2018-10-17T22:11:39.118Z,11.03
2018-10-17T22:14:08.017Z,12.27
2018-10-17T22:16:41.601Z,11.17
2018-10-17T22:19:10.160Z,11.97
2018-10-17T22:21:38.281Z,11.37
2018-10-17T22:24:06.699Z,11.87
2018-10-17T22:26:35.047Z,13.07
2018-10-17T22:29:03.540Z,12.20
2018-10-17T22:31:31.852Z,12.13
2018-10-17T22:34:00.239Z,12.23
2018-10-17T22:36:28.684Z,12.30
2018-10-17T22:38:57.033Z,12.07
2018-10-17T22:41:25.470Z,12.77
2018-10-17T22:43:53.910Z,11.63
2018-10-17T22:46:22.375Z,12.10
2018-10-17T22:48:50.748Z,12.10
2018-10-17T22:51:19.139Z,12.30
2018-10-17T22:53:47.924Z,14.47
2018-10-17T22:56:16.444Z,14.73
2018-10-17T22:58:44.691Z,13.87
2018-10-17T23:01:13.027Z,13.07
2018-10-17T23:03:41.452Z,12.80
2018-10-17T23:06:09.772Z,12.53
2018-10-17T23:08:38.051Z,13.03
2018-10-17T23:11:06.588Z,11.90
2018-10-17T23:13:34.900Z,13.17
2018-10-17T23:16:03.282Z,12.87
2018-10-17T23:18:31.591Z,14.17
2018-10-17T23:20:59.937Z,12.60
2018-10-17T23:23:28.288Z,12.93
2018-10-17T23:25:57.091Z,19.43
2018-10-17T23:28:25.645Z,14.57
2018-10-17T23:30:54.090Z,12.47
2018-10-17T23:33:22.413Z,14.47
2018-10-17T23:35:50.740Z,12.80
2018-10-17T23:38:19.196Z,14.83
2018-10-17T23:40:47.514Z,14.07
2018-10-17T23:43:15.854Z,13.40
2018-10-17T23:45:44.199Z,13.57
2018-10-17T23:48:12.556Z,13.30
2018-10-17T23:50:40.840Z,14.77
2018-10-17T23:53:09.740Z,13.43
2018-10-17T23:55:38.104Z,13.77
2018-10-17T23:58:06.415Z,15.33
